createdAt,value
2016-03-11T00:00:58.662Z,0
2016-03-11T00:01:58.664Z,0
2016-03-11T00:02:58.667Z,0
2016-03-11T00:03:58.686Z,0
2016-03-11T00:04:58.703Z,0
2016-03-11T00:05:58.707Z,0
2016-03-11T00:06:58.709Z,0
2016-03-11T00:07:58.727Z,0
2016-03-11T00:08:58.730Z,0
2016-03-11T00:09:58.733Z,0
2016-03-11T00:10:58.751Z,0
2016-03-11T00:11:58.770Z,0
2016-03-11T00:12:58.773Z,0
2016-03-11T00:13:58.775Z,0
2016-03-11T00:14:58.794Z,0
2016-03-11T00:15:58.797Z,0
2016-03-11T00:16:58.783Z,0
2016-03-11T00:17:58.802Z,0
2016-03-11T00:18:58.851Z,0
2016-03-11T00:19:58.838Z,0
2016-03-11T00:20:58.857Z,0
2016-03-11T00:21:58.860Z,0
2016-03-11T00:22:58.862Z,0
2016-03-11T00:23:58.849Z,0
2016-03-11T00:24:58.883Z,0
2016-03-11T00:25:58.901Z,0
2016-03-11T00:26:58.873Z,0
2016-03-11T00:27:58.907Z,0
2016-03-11T00:28:58.924Z,0
2016-03-11T00:29:58.927Z,0
2016-03-11T00:30:58.915Z,0
2016-03-11T00:31:58.979Z,0
2016-03-11T00:32:58.951Z,0
2016-03-11T00:33:58.985Z,0
2016-03-11T00:34:58.956Z,0
2016-03-11T00:35:59.007Z,0
2016-03-11T00:36:58.979Z,0
2016-03-11T00:37:59.012Z,0
2016-03-11T00:38:58.999Z,0
2016-03-11T00:39:59.033Z,0
2016-03-11T00:40:59.051Z,0
2016-03-11T00:41:59.023Z,0
2016-03-11T00:42:59.056Z,0
2016-03-11T00:43:59.044Z,0
2016-03-11T00:44:59.093Z,0
2016-03-11T00:45:59.049Z,0
2016-03-11T00:47:13.036Z,0
2016-03-11T00:47:59.086Z,0
2016-03-11T00:48:59.088Z,0
2016-03-11T00:49:59.091Z,0
2016-03-11T00:50:59.125Z,0
2016-03-11T00:51:59.112Z,0
2016-03-11T00:52:59.115Z,0
2016-03-11T00:53:59.134Z,0
2016-03-11T00:54:59.152Z,0
2016-03-11T00:55:59.155Z,0
2016-03-11T00:56:59.158Z,0
2016-03-11T00:57:59.160Z,0
2016-03-11T00:58:59.178Z,0
2016-03-11T00:59:59.197Z,0
2016-03-11T01:00:59.199Z,0
2016-03-11T01:01:59.218Z,0
2016-03-11T01:02:59.236Z,0
2016-03-11T01:03:59.270Z,0
2016-03-11T01:04:59.272Z,0
2016-03-11T01:05:58.947Z,0
2016-03-11T01:06:59.231Z,0
2016-03-11T01:07:59.265Z,0
2016-03-11T01:08:59.268Z,0
2016-03-11T01:09:59.270Z,0
2016-03-11T01:10:59.304Z,0
2016-03-11T01:11:59.291Z,0
2016-03-11T01:12:59.309Z,0
2016-03-11T01:13:59.296Z,0
2016-03-11T01:14:59.315Z,0
2016-03-11T01:15:59.334Z,0
2016-03-11T01:16:59.383Z,0
2016-03-11T01:17:59.354Z,0
2016-03-11T01:18:59.420Z,0
2016-03-11T01:19:59.360Z,0
2016-03-11T01:20:59.379Z,0
2016-03-11T01:21:59.381Z,0
2016-03-11T01:22:59.383Z,0
2016-03-11T01:23:59.464Z,0
2016-03-11T01:24:59.592Z,0
2016-03-11T01:25:59.517Z,0
2016-03-11T01:27:13.536Z,0
2016-03-11T01:27:59.460Z,0
2016-03-11T01:28:59.447Z,0
2016-03-11T01:29:59.450Z,0
2016-03-11T01:30:59.453Z,0
2016-03-11T01:31:59.486Z,0
2016-03-11T01:32:59.520Z,0
2016-03-11T01:33:59.320Z,0
2016-03-11T01:34:59.494Z,0
2016-03-11T01:35:59.341Z,0
2016-03-11T01:36:59.375Z,0
2016-03-11T01:37:59.502Z,0
2016-03-11T01:38:59.537Z,0
2016-03-11T01:39:59.571Z,0
2016-03-11T01:40:59.557Z,0
2016-03-11T01:41:59.544Z,0
2016-03-11T01:42:59.546Z,0
2016-03-11T01:43:59.566Z,0
2016-03-11T01:44:59.663Z,0
2016-03-11T01:45:59.618Z,0
2016-03-11T01:46:59.621Z,0
2016-03-11T01:47:59.607Z,0
2016-03-11T01:48:59.595Z,0
2016-03-11T01:49:59.628Z,0
2016-03-11T01:50:59.647Z,0
2016-03-11T01:51:59.634Z,0
2016-03-11T01:52:59.668Z,0
2016-03-11T01:53:59.639Z,0
2016-03-11T01:54:59.720Z,0
2016-03-11T01:55:59.644Z,0
2016-03-11T01:56:59.695Z,0
2016-03-11T01:57:59.681Z,0
2016-03-11T01:58:59.711Z,0
2016-03-11T01:59:59.688Z,0
2016-03-11T02:00:59.694Z,0
2016-03-11T02:01:59.750Z,0
2016-03-11T02:02:59.695Z,0
2016-03-11T02:03:59.689Z,0
2016-03-11T02:04:59.688Z,0
2016-03-11T02:05:59.796Z,0
2016-03-11T02:06:59.702Z,0
2016-03-11T02:07:59.716Z,0
2016-03-11T02:08:59.700Z,0
2016-03-11T02:09:59.732Z,0
2016-03-11T02:10:59.718Z,0
2016-03-11T02:11:59.719Z,0
2016-03-11T02:12:59.736Z,0
2016-03-11T02:13:59.752Z,0
2016-03-11T02:14:59.787Z,0
2016-03-11T02:15:59.742Z,0
2016-03-11T02:16:59.776Z,0
2016-03-11T02:17:59.777Z,0
2016-03-11T02:18:59.780Z,0
2016-03-11T02:19:59.767Z,0
2016-03-11T02:20:59.833Z,0
2016-03-11T02:21:59.819Z,0
2016-03-11T02:22:59.822Z,0
2016-03-11T02:23:59.825Z,0
2016-03-11T02:24:59.844Z,0
2016-03-11T02:25:59.846Z,0
2016-03-11T02:26:59.849Z,0
2016-03-11T02:27:59.882Z,0
2016-03-11T02:28:59.885Z,0
2016-03-11T02:29:59.873Z,0
2016-03-11T02:30:59.875Z,0
2016-03-11T02:31:59.909Z,0
2016-03-11T02:32:59.912Z,0
2016-03-11T02:33:59.899Z,0
2016-03-11T02:34:59.901Z,0
2016-03-11T02:35:59.935Z,0
2016-03-11T02:36:59.922Z,0
2016-03-11T02:37:59.941Z,0
2016-03-11T02:38:59.959Z,0
2016-03-11T02:39:59.978Z,0
2016-03-11T02:40:59.965Z,0
2016-03-11T02:41:59.983Z,0
2016-03-11T02:42:59.970Z,0
2016-03-11T02:43:59.989Z,0
2016-03-11T02:44:59.992Z,0
2016-03-11T02:46:00.009Z,0
2016-03-11T02:46:59.997Z,0
2016-03-11T02:48:00.014Z,0
2016-03-11T02:49:00.033Z,0
2016-03-11T02:50:00.052Z,0
2016-03-11T02:51:00.054Z,0
2016-03-11T02:52:00.057Z,0
2016-03-11T02:53:00.043Z,0
2016-03-11T02:54:00.077Z,0
2016-03-11T02:55:00.080Z,0
2016-03-11T02:56:00.099Z,0
2016-03-11T02:57:00.101Z,0
2016-03-11T02:58:00.104Z,0
2016-03-11T02:59:00.091Z,0
2016-03-11T03:00:00.124Z,0
2016-03-11T03:01:00.128Z,0
2016-03-11T03:02:00.177Z,0
2016-03-11T03:03:00.133Z,0
2016-03-11T03:04:00.167Z,0
2016-03-11T03:05:00.169Z,0
2016-03-11T03:06:00.015Z,0
2016-03-11T03:07:00.175Z,0
2016-03-11T03:08:00.209Z,0
2016-03-11T03:09:00.243Z,0
2016-03-11T03:10:00.230Z,0
2016-03-11T03:11:00.201Z,0
2016-03-11T03:12:00.220Z,0
2016-03-11T03:13:00.222Z,0
2016-03-11T03:14:00.225Z,0
2016-03-11T03:15:00.244Z,0
2016-03-11T03:16:00.230Z,0
2016-03-11T03:17:00.295Z,0
2016-03-11T03:18:00.282Z,0
2016-03-11T03:19:00.270Z,0
2016-03-11T03:20:00.289Z,0
2016-03-11T03:21:00.275Z,0
2016-03-11T03:22:00.309Z,0
2016-03-11T03:23:00.343Z,0
2016-03-11T03:24:00.361Z,0
2016-03-11T03:25:00.333Z,0
2016-03-11T03:26:00.336Z,0
2016-03-11T03:27:00.354Z,0
2016-03-11T03:28:00.325Z,0
2016-03-11T03:29:00.375Z,0
2016-03-11T03:30:14.471Z,0
2016-03-11T03:31:00.395Z,0
2016-03-11T03:32:00.352Z,0
2016-03-11T03:33:00.385Z,0
2016-03-11T03:34:00.435Z,0
2016-03-11T03:35:00.422Z,0
2016-03-11T03:36:00.457Z,0
2016-03-11T03:37:00.428Z,0
2016-03-11T03:38:00.431Z,0
2016-03-11T03:39:00.434Z,0
2016-03-11T03:40:00.451Z,0
2016-03-11T03:41:00.439Z,0
2016-03-11T03:42:00.473Z,0
2016-03-11T03:43:00.569Z,0
2016-03-11T03:44:00.681Z,0
2016-03-11T03:45:00.481Z,0
2016-03-11T03:46:00.514Z,0
2016-03-11T03:47:00.548Z,0
2016-03-11T03:48:00.503Z,0
2016-03-11T03:49:00.506Z,0
2016-03-11T03:50:00.541Z,0
2016-03-11T03:51:00.544Z,0
2016-03-11T03:52:00.530Z,0
2016-03-11T03:53:00.533Z,0
2016-03-11T03:54:00.551Z,0
2016-03-11T03:55:00.554Z,0
2016-03-11T03:56:00.572Z,0
2016-03-11T03:57:00.575Z,0
2016-03-11T03:58:00.609Z,0
2016-03-11T03:59:00.440Z,0
2016-03-11T04:00:00.599Z,0
2016-03-11T04:01:00.602Z,0
2016-03-11T04:02:00.605Z,0
2016-03-11T04:03:00.607Z,0
2016-03-11T04:04:00.640Z,0
2016-03-11T04:05:00.660Z,0
2016-03-11T04:06:00.646Z,0
2016-03-11T04:07:00.634Z,0
2016-03-11T04:08:00.682Z,0
2016-03-11T04:09:00.685Z,0
2016-03-11T04:10:00.688Z,0
2016-03-11T04:11:00.690Z,0
2016-03-11T04:12:00.693Z,0
2016-03-11T04:13:00.728Z,0
2016-03-11T04:14:00.698Z,0
2016-03-11T04:15:00.733Z,0
2016-03-11T04:16:00.720Z,0
2016-03-11T04:17:00.769Z,0
2016-03-11T04:18:00.757Z,0
2016-03-11T04:19:00.744Z,0
2016-03-11T04:20:00.762Z,0
2016-03-11T04:21:00.780Z,0
2016-03-11T04:22:00.783Z,0
2016-03-11T04:23:00.770Z,0
2016-03-11T04:24:00.805Z,0
2016-03-11T04:25:00.791Z,0
2016-03-11T04:26:00.810Z,0
2016-03-11T04:27:00.812Z,0
2016-03-11T04:28:00.877Z,0
2016-03-11T04:29:00.864Z,0
2016-03-11T04:30:00.821Z,0
2016-03-11T04:31:00.869Z,0
2016-03-11T04:32:00.857Z,0
2016-03-11T04:33:00.860Z,0
2016-03-11T04:34:00.941Z,0
2016-03-11T04:35:00.865Z,0
2016-03-11T04:36:00.899Z,0
2016-03-11T04:37:00.901Z,0
2016-03-11T04:38:00.904Z,0
2016-03-11T04:39:00.954Z,0
2016-03-11T04:40:00.925Z,0
2016-03-11T04:41:01.006Z,0
2016-03-11T04:42:00.945Z,0
2016-03-11T04:43:00.964Z,0
2016-03-11T04:44:00.936Z,0
2016-03-11T04:45:01.032Z,0
2016-03-11T04:46:00.989Z,0
2016-03-11T04:47:00.976Z,0
2016-03-11T04:48:00.962Z,0
2016-03-11T04:49:00.980Z,0
2016-03-11T04:50:01.000Z,0
2016-03-11T04:51:01.017Z,0
2016-03-11T04:52:01.004Z,0
2016-03-11T04:53:01.023Z,0
2016-03-11T04:54:00.994Z,0
2016-03-11T04:55:01.059Z,0
2016-03-11T04:56:01.047Z,0
2016-03-11T04:57:01.049Z,0
2016-03-11T04:58:01.052Z,0
2016-03-11T04:59:01.055Z,0
2016-03-11T05:00:01.104Z,0
2016-03-11T05:01:01.059Z,0
2016-03-11T05:02:01.094Z,0
2016-03-11T05:03:01.112Z,0
2016-03-11T05:04:01.115Z,0
2016-03-11T05:05:01.117Z,0
2016-03-11T05:06:00.996Z,0
2016-03-11T05:07:01.129Z,0
2016-03-11T05:08:01.178Z,0
2016-03-11T05:09:01.135Z,0
2016-03-11T05:10:01.168Z,0
2016-03-11T05:11:01.140Z,4
2016-03-11T05:12:01.173Z,4
2016-03-11T05:13:01.160Z,4
2016-03-11T05:14:01.178Z,4
2016-03-11T05:15:01.182Z,0
2016-03-11T05:16:01.231Z,4
2016-03-11T05:17:01.187Z,8
2016-03-11T05:18:01.190Z,20
2016-03-11T05:19:01.207Z,4
2016-03-11T05:20:01.226Z,8
2016-03-11T05:21:01.228Z,8
2016-03-11T05:22:01.262Z,8
2016-03-11T05:23:01.250Z,8
2016-03-11T05:24:01.253Z,12
2016-03-11T05:25:01.255Z,16
2016-03-11T05:26:01.273Z,16
2016-03-11T05:27:01.276Z,16
2016-03-11T05:28:01.264Z,16
2016-03-11T05:29:01.313Z,20
2016-03-11T05:30:01.284Z,24
2016-03-11T05:31:01.333Z,28
2016-03-11T05:32:01.322Z,28
2016-03-11T05:33:01.324Z,32
2016-03-11T05:34:01.342Z,36
2016-03-11T05:35:01.360Z,40
2016-03-11T05:36:01.347Z,40
2016-03-11T05:37:01.366Z,44
2016-03-11T05:38:01.352Z,44
2016-03-11T05:39:01.355Z,48
2016-03-11T05:40:01.373Z,52
2016-03-11T05:41:01.408Z,68
2016-03-11T05:42:01.379Z,84
2016-03-11T05:43:01.397Z,100
2016-03-11T05:44:01.400Z,112
2016-03-11T05:45:01.402Z,124
2016-03-11T05:46:01.421Z,136
2016-03-11T05:47:01.423Z,144
2016-03-11T05:48:02.021Z,156
2016-03-11T05:49:01.460Z,168
2016-03-11T05:50:01.432Z,176
2016-03-11T05:51:01.450Z,188
2016-03-11T05:52:01.453Z,196
2016-03-11T05:53:01.362Z,208
2016-03-11T05:54:01.473Z,220
2016-03-11T05:55:01.523Z,232
2016-03-11T05:56:01.541Z,252
2016-03-11T05:57:01.498Z,272
2016-03-11T05:58:01.531Z,300
2016-03-11T05:59:01.519Z,316
2016-03-11T06:00:01.521Z,324
2016-03-11T06:01:01.570Z,324
2016-03-11T06:02:01.527Z,320
2016-03-11T06:03:01.623Z,320
2016-03-11T06:04:01.563Z,320
2016-03-11T06:05:01.566Z,324
2016-03-11T06:06:00.834Z,328
2016-03-11T06:07:01.556Z,332
2016-03-11T06:08:01.589Z,332
2016-03-11T06:09:01.608Z,324
2016-03-11T06:10:01.594Z,320
2016-03-11T06:11:01.597Z,328
2016-03-11T06:12:01.616Z,340
2016-03-11T06:13:01.649Z,352
2016-03-11T06:14:01.638Z,364
2016-03-11T06:15:01.671Z,396
2016-03-11T06:16:01.658Z,444
2016-03-11T06:17:01.660Z,504
2016-03-11T06:18:01.679Z,572
2016-03-11T06:19:01.681Z,660
2016-03-11T06:20:01.684Z,748
2016-03-11T06:21:01.703Z,832
2016-03-11T06:22:01.721Z,884
2016-03-11T06:23:01.709Z,920
2016-03-11T06:24:01.742Z,932
2016-03-11T06:25:01.745Z,952
2016-03-11T06:26:01.809Z,984
2016-03-11T06:27:01.734Z,1032
2016-03-11T06:28:01.753Z,1092
2016-03-11T06:29:01.755Z,1156
2016-03-11T06:30:01.758Z,1212
2016-03-11T06:31:01.761Z,1292
2016-03-11T06:32:01.779Z,1360
2016-03-11T06:33:01.656Z,1440
2016-03-11T06:34:01.784Z,1512
2016-03-11T06:35:01.818Z,1580
2016-03-11T06:36:01.805Z,1620
2016-03-11T06:37:01.871Z,1664
2016-03-11T06:38:01.827Z,1720
2016-03-11T06:39:01.844Z,1732
2016-03-11T06:40:01.847Z,1704
2016-03-11T06:41:01.882Z,1624
2016-03-11T06:42:01.868Z,1528
2016-03-11T06:43:01.887Z,1424
2016-03-11T06:44:01.920Z,1324
2016-03-11T06:45:01.923Z,1236
2016-03-11T06:46:01.895Z,1144
2016-03-11T06:47:01.898Z,1044
2016-03-11T06:48:01.946Z,948
2016-03-11T06:49:01.918Z,924
2016-03-11T06:50:01.936Z,932
2016-03-11T06:51:01.970Z,948
2016-03-11T06:52:01.957Z,920
2016-03-11T06:53:01.945Z,916
2016-03-11T06:54:01.979Z,912
2016-03-11T06:55:01.998Z,968
2016-03-11T06:56:02.000Z,1092
2016-03-11T06:57:02.003Z,1236
2016-03-11T06:58:02.021Z,1472
2016-03-11T06:59:02.024Z,1776
2016-03-11T07:00:02.026Z,2140
2016-03-11T07:01:02.045Z,2516
2016-03-11T07:02:02.031Z,2952
2016-03-11T07:03:02.050Z,3380
2016-03-11T07:04:02.052Z,3712
2016-03-11T07:05:02.055Z,3944
2016-03-11T07:06:02.058Z,3988
2016-03-11T07:07:02.092Z,4064
2016-03-11T07:08:02.079Z,4172
2016-03-11T07:09:02.113Z,4356
2016-03-11T07:10:02.100Z,4512
2016-03-11T07:11:02.133Z,4192
2016-03-11T07:12:02.121Z,5760
2016-03-11T07:13:02.139Z,5856
2016-03-11T07:14:02.127Z,6240
2016-03-11T07:15:02.144Z,7272
2016-03-11T07:16:02.163Z,7760
2016-03-11T07:17:02.165Z,7716
2016-03-11T07:18:02.185Z,7744
2016-03-11T07:19:02.187Z,6716
2016-03-11T07:20:02.205Z,5304
2016-03-11T07:21:02.223Z,4696
2016-03-11T07:22:02.210Z,4664
2016-03-11T07:23:02.245Z,4720
2016-03-11T07:24:02.248Z,4720
2016-03-11T07:25:02.265Z,4624
2016-03-11T07:26:02.315Z,4580
2016-03-11T07:27:02.270Z,4648
2016-03-11T07:28:02.304Z,4784
2016-03-11T07:29:02.307Z,4964
2016-03-11T07:30:02.295Z,5128
2016-03-11T07:31:02.328Z,5224
2016-03-11T07:32:02.347Z,5220
2016-03-11T07:33:02.365Z,5188
2016-03-11T07:34:02.367Z,5152
2016-03-11T07:35:02.386Z,5212
2016-03-11T07:36:02.372Z,5348
2016-03-11T07:37:02.407Z,5416
2016-03-11T07:38:02.410Z,5424
2016-03-11T07:39:02.459Z,5416
2016-03-11T07:40:02.461Z,5724
2016-03-11T07:41:02.449Z,6488
2016-03-11T07:42:02.451Z,8236
2016-03-11T07:43:02.470Z,9392
2016-03-11T07:44:02.504Z,9636
2016-03-11T07:45:02.475Z,10840
2016-03-11T07:46:02.541Z,10648
2016-03-11T07:47:02.512Z,10280
2016-03-11T07:48:02.546Z,9860
2016-03-11T07:49:02.532Z,8396
2016-03-11T07:50:02.568Z,8792
2016-03-11T07:51:02.570Z,13216
2016-03-11T07:52:02.604Z,17344
2016-03-11T07:53:02.606Z,15744
2016-03-11T07:54:02.656Z,18976
2016-03-11T07:55:02.658Z,18144
2016-03-11T07:56:02.661Z,10264
2016-03-11T07:57:02.664Z,10652
2016-03-11T07:58:02.667Z,17632
2016-03-11T07:59:02.684Z,21952
2016-03-11T08:00:02.734Z,19968
2016-03-11T08:01:02.784Z,20128
2016-03-11T08:02:02.770Z,20928
2016-03-11T08:03:02.743Z,12796
2016-03-11T08:04:02.776Z,8592
2016-03-11T08:05:02.639Z,5692
2016-03-11T08:06:02.781Z,6596
2016-03-11T08:07:02.831Z,7184
2016-03-11T08:08:02.834Z,6820
2016-03-11T08:09:02.869Z,7736
2016-03-11T08:10:02.886Z,6416
2016-03-11T08:11:02.874Z,6772
2016-03-11T08:12:02.939Z,7052
2016-03-11T08:13:02.911Z,7668
2016-03-11T08:14:02.928Z,6604
2016-03-11T08:15:02.947Z,6128
2016-03-11T08:16:02.997Z,6728
2016-03-11T08:17:03.015Z,8640
2016-03-11T08:18:03.002Z,10976
2016-03-11T08:19:03.005Z,17568
2016-03-11T08:20:03.023Z,6312
2016-03-11T08:21:03.072Z,5056
2016-03-11T08:22:03.247Z,5204
2016-03-11T08:23:03.109Z,5280
2016-03-11T08:24:03.127Z,6992
2016-03-11T08:25:03.098Z,20480
2016-03-11T08:26:03.148Z,23584
2016-03-11T08:27:03.151Z,16896
2016-03-11T08:28:03.137Z,6928
2016-03-11T08:29:03.172Z,6360
2016-03-11T08:30:03.206Z,7092
2016-03-11T08:31:03.240Z,6348
2016-03-11T08:32:03.226Z,6632
2016-03-11T08:33:03.245Z,7288
2016-03-11T08:34:03.248Z,13600
2016-03-11T08:35:03.281Z,16992
2016-03-11T08:36:03.300Z,12580
2016-03-11T08:37:03.333Z,7004
2016-03-11T08:38:03.353Z,9328
2016-03-11T08:39:03.355Z,7312
2016-03-11T08:40:03.389Z,7172
2016-03-11T08:41:03.361Z,6932
2016-03-11T08:42:03.378Z,5740
2016-03-11T08:43:03.444Z,5384
2016-03-11T08:44:03.446Z,7156
2016-03-11T08:45:03.558Z,8560
2016-03-11T08:46:03.671Z,10312
2016-03-11T08:47:03.516Z,10100
2016-03-11T08:48:03.504Z,8848
2016-03-11T08:49:04.194Z,8868
2016-03-11T08:50:03.541Z,7472
2016-03-11T08:51:03.560Z,7784
2016-03-11T08:52:03.577Z,9312
2016-03-11T08:53:03.580Z,9724
2016-03-11T08:54:03.614Z,10104
2016-03-11T08:55:03.617Z,9544
2016-03-11T08:56:03.635Z,9104
2016-03-11T08:57:03.653Z,9332
2016-03-11T08:58:03.671Z,9952
2016-03-11T08:59:03.674Z,11176
2016-03-11T09:00:03.740Z,12352
2016-03-11T09:01:03.726Z,12044
2016-03-11T09:02:03.760Z,10344
2016-03-11T09:03:03.764Z,9024
2016-03-11T09:04:03.812Z,8984
2016-03-11T09:05:03.814Z,8464
2016-03-11T09:06:03.864Z,8112
2016-03-11T09:07:03.961Z,7988
2016-03-11T09:08:03.870Z,7828
2016-03-11T09:09:03.716Z,7620
2016-03-11T09:10:03.891Z,7772
2016-03-11T09:11:04.081Z,7508
2016-03-11T09:12:03.928Z,6664
2016-03-11T09:13:03.993Z,6976
2016-03-11T09:14:03.964Z,8204
2016-03-11T09:15:04.030Z,8428
2016-03-11T09:16:04.002Z,9292
2016-03-11T09:17:04.051Z,9412
2016-03-11T09:18:04.054Z,8660
2016-03-11T09:19:04.087Z,6792
2016-03-11T09:20:04.090Z,6448
2016-03-11T09:21:04.108Z,7004
2016-03-11T09:22:04.142Z,7292
2016-03-11T09:23:04.160Z,7792
2016-03-11T09:24:04.179Z,6332
2016-03-11T09:25:04.198Z,5620
2016-03-11T09:26:04.246Z,4512
2016-03-11T09:27:04.218Z,4300
2016-03-11T09:28:04.268Z,4820
2016-03-11T09:29:04.271Z,5204
2016-03-11T09:30:04.336Z,5416
2016-03-11T09:31:04.307Z,5360
2016-03-11T09:32:04.326Z,5776
2016-03-11T09:33:04.328Z,6792
2016-03-11T09:34:04.392Z,6832
2016-03-11T09:35:04.396Z,6956
2016-03-11T09:36:04.414Z,7184
2016-03-11T09:37:04.464Z,7160
2016-03-11T09:38:04.436Z,7276
2016-03-11T09:39:04.501Z,7164
2016-03-11T09:40:04.488Z,6068
2016-03-11T09:41:04.522Z,6140
2016-03-11T09:42:04.524Z,5976
2016-03-11T09:43:04.558Z,6268
2016-03-11T09:44:04.561Z,7184
2016-03-11T09:45:04.438Z,7256
2016-03-11T09:46:04.597Z,7576
2016-03-11T09:47:04.632Z,7244
2016-03-11T09:48:04.649Z,7612
2016-03-11T09:49:04.683Z,8432
2016-03-11T09:50:04.701Z,9624
2016-03-11T09:51:04.689Z,10152
2016-03-11T09:52:04.739Z,8048
2016-03-11T09:53:04.726Z,7348
2016-03-11T09:54:04.776Z,7356
2016-03-11T09:55:04.779Z,7560
2016-03-11T09:56:04.812Z,8388
2016-03-11T09:57:04.861Z,6808
2016-03-11T09:58:04.849Z,6796
2016-03-11T09:59:04.867Z,7996
2016-03-11T10:00:04.885Z,7340
2016-03-11T10:01:04.919Z,6616
2016-03-11T10:02:04.937Z,5880
2016-03-11T10:03:04.940Z,5128
2016-03-11T10:04:04.958Z,4564
2016-03-11T10:05:04.976Z,5176
2016-03-11T10:06:04.995Z,6556
2016-03-11T10:07:05.020Z,6792
2016-03-11T10:08:05.037Z,3956
2016-03-11T10:09:05.087Z,3964
2016-03-11T10:10:05.090Z,4096
2016-03-11T10:11:05.092Z,5036
2016-03-11T10:12:05.142Z,5384
2016-03-11T10:13:05.144Z,5284
2016-03-11T10:14:05.195Z,6552
2016-03-11T10:15:05.181Z,5204
2016-03-11T10:16:05.246Z,6272
2016-03-11T10:17:05.234Z,6224
2016-03-11T10:18:05.096Z,4756
2016-03-11T10:19:05.270Z,6940
2016-03-11T10:20:05.272Z,6124
2016-03-11T10:21:05.308Z,7132
2016-03-11T10:22:05.325Z,7472
2016-03-11T10:23:05.327Z,6972
2016-03-11T10:24:05.393Z,6696
2016-03-11T10:25:05.380Z,6732
2016-03-11T10:26:05.383Z,6636
2016-03-11T10:27:05.432Z,5944
2016-03-11T10:28:05.451Z,6356
2016-03-11T10:29:05.468Z,6480
2016-03-11T10:30:05.518Z,6628
2016-03-11T10:31:05.521Z,5504
2016-03-11T10:32:05.539Z,4252
2016-03-11T10:33:05.543Z,5732
2016-03-11T10:34:05.560Z,5724
2016-03-11T10:35:05.579Z,5880
2016-03-11T10:36:05.612Z,3684
2016-03-11T10:37:05.631Z,5192
2016-03-11T10:38:05.649Z,6064
2016-03-11T10:39:05.683Z,5504
2016-03-11T10:40:05.687Z,3688
2016-03-11T10:41:05.704Z,5332
2016-03-11T10:42:05.738Z,4728
2016-03-11T10:43:05.772Z,2484
2016-03-11T10:44:05.759Z,2708
2016-03-11T10:45:05.809Z,3028
2016-03-11T10:46:05.795Z,3488
2016-03-11T10:47:05.846Z,5208
2016-03-11T10:48:05.848Z,5460
2016-03-11T10:49:05.882Z,6664
2016-03-11T10:50:05.885Z,6216
2016-03-11T10:51:05.903Z,5156
2016-03-11T10:52:05.969Z,3848
2016-03-11T10:53:05.971Z,4720
2016-03-11T10:54:06.005Z,6100
2016-03-11T10:55:05.992Z,5032
2016-03-11T10:56:06.010Z,4840
2016-03-11T10:57:06.060Z,2524
2016-03-11T10:58:06.062Z,2628
2016-03-11T10:59:06.081Z,2784
2016-03-11T11:00:06.115Z,3100
2016-03-11T11:01:06.102Z,2796
2016-03-11T11:02:06.182Z,2820
2016-03-11T11:03:06.154Z,2408
2016-03-11T11:04:06.188Z,2536
2016-03-11T11:05:06.199Z,2992
2016-03-11T11:06:06.171Z,3108
2016-03-11T11:07:06.206Z,3284
2016-03-11T11:08:06.210Z,2960
2016-03-11T11:09:06.244Z,2900
2016-03-11T11:10:06.252Z,2756
2016-03-11T11:11:06.234Z,2692
2016-03-11T11:12:06.246Z,2692
2016-03-11T11:13:06.260Z,2804
2016-03-11T11:14:06.257Z,2668
2016-03-11T11:15:06.303Z,2644
2016-03-11T11:16:06.335Z,2616
2016-03-11T11:17:06.351Z,2584
2016-03-11T11:18:06.352Z,2544
2016-03-11T11:19:06.368Z,2452
2016-03-11T11:20:06.385Z,2376
2016-03-11T11:21:06.402Z,2340
2016-03-11T11:22:06.436Z,2448
2016-03-11T11:23:06.453Z,2516
2016-03-11T11:24:06.393Z,2564
2016-03-11T11:25:06.489Z,2580
2016-03-11T11:26:06.492Z,2536
2016-03-11T11:27:06.524Z,2508
2016-03-11T11:28:06.541Z,2428
2016-03-11T11:29:06.544Z,2284
2016-03-11T11:30:06.578Z,2044
2016-03-11T11:31:06.613Z,1884
2016-03-11T11:32:06.631Z,1860
2016-03-11T11:33:06.617Z,1888
2016-03-11T11:34:06.637Z,1920
2016-03-11T11:35:06.654Z,1936
2016-03-11T11:36:06.859Z,1952
2016-03-11T11:37:06.707Z,1976
2016-03-11T11:38:06.709Z,1964
2016-03-11T11:39:06.790Z,1876
2016-03-11T11:40:06.745Z,1780
2016-03-11T11:41:06.733Z,1672
2016-03-11T11:42:06.767Z,1604
2016-03-11T11:43:06.816Z,1540
2016-03-11T11:44:06.819Z,1544
2016-03-11T11:45:06.837Z,1560
2016-03-11T11:46:06.918Z,1544
2016-03-11T11:47:06.921Z,1556
2016-03-11T11:48:06.877Z,1700
2016-03-11T11:49:06.926Z,1856
2016-03-11T11:50:06.913Z,1936
2016-03-11T11:51:06.947Z,2012
2016-03-11T11:52:06.950Z,2152
2016-03-11T11:53:06.968Z,2296
2016-03-11T11:54:07.002Z,2328
2016-03-11T11:55:07.005Z,2452
2016-03-11T11:56:07.008Z,2588
2016-03-11T11:57:07.073Z,2992
2016-03-11T11:58:07.044Z,2732
2016-03-11T11:59:07.079Z,2516
2016-03-11T12:00:07.159Z,2216
2016-03-11T12:01:07.130Z,2112
2016-03-11T12:02:07.133Z,2116
2016-03-11T12:03:07.136Z,2088
2016-03-11T12:04:07.154Z,2140
2016-03-11T12:05:07.173Z,2092
2016-03-11T12:06:07.190Z,2024
2016-03-11T12:07:07.256Z,1968
2016-03-11T12:08:07.212Z,1864
2016-03-11T12:09:07.261Z,1764
2016-03-11T12:10:07.264Z,1648
2016-03-11T12:11:07.298Z,1588
2016-03-11T12:12:07.300Z,1576
2016-03-11T12:13:07.304Z,1640
2016-03-11T12:14:07.337Z,1728
2016-03-11T12:15:07.356Z,1812
2016-03-11T12:16:07.358Z,1988
2016-03-11T12:17:07.408Z,2236
2016-03-11T12:18:07.395Z,2460
2016-03-11T12:19:07.413Z,2616
2016-03-11T12:20:07.431Z,2800
2016-03-11T12:21:07.450Z,3060
2016-03-11T12:22:07.484Z,4700
2016-03-11T12:23:07.502Z,4088
2016-03-11T12:24:07.489Z,3500
2016-03-11T12:25:07.508Z,5056
2016-03-11T12:26:07.510Z,5148
2016-03-11T12:27:07.544Z,5104
2016-03-11T12:28:07.624Z,5060
2016-03-11T12:29:07.580Z,3612
2016-03-11T12:30:07.630Z,3560
2016-03-11T12:31:07.618Z,3724
2016-03-11T12:32:07.635Z,4640
2016-03-11T12:33:07.654Z,2956
2016-03-11T12:34:07.657Z,2728
2016-03-11T12:35:07.722Z,2632
2016-03-11T12:36:07.693Z,2720
2016-03-11T12:37:07.727Z,2384
2016-03-11T12:38:07.761Z,2420
2016-03-11T12:39:07.748Z,2476
2016-03-11T12:40:07.767Z,2252
2016-03-11T12:41:07.784Z,2064
2016-03-11T12:42:07.834Z,2004
2016-03-11T12:43:07.696Z,2040
2016-03-11T12:44:07.840Z,2032
2016-03-11T12:45:07.998Z,2020
2016-03-11T12:46:07.876Z,2084
2016-03-11T12:47:07.911Z,2104
2016-03-11T12:48:07.913Z,2012
2016-03-11T12:49:07.963Z,1836
2016-03-11T12:50:07.950Z,1624
2016-03-11T12:51:08.000Z,1408
2016-03-11T12:52:08.002Z,1244
2016-03-11T12:53:08.005Z,1116
2016-03-11T12:54:08.070Z,1064
2016-03-11T12:55:08.057Z,1072
2016-03-11T12:56:08.044Z,1160
2016-03-11T12:57:08.078Z,1224
2016-03-11T12:58:08.112Z,1260
2016-03-11T12:59:08.115Z,1280
2016-03-11T13:00:08.148Z,1304
2016-03-11T13:01:08.135Z,1312
2016-03-11T13:02:08.263Z,1312
2016-03-11T13:03:08.187Z,1284
2016-03-11T13:04:08.206Z,1276
2016-03-11T13:05:08.240Z,1280
2016-03-11T13:06:08.243Z,1312
2016-03-11T13:07:08.245Z,1364
2016-03-11T13:08:08.279Z,1460
2016-03-11T13:09:08.282Z,1524
2016-03-11T13:10:08.301Z,1576
2016-03-11T13:11:08.334Z,1580
2016-03-11T13:12:08.337Z,1552
2016-03-11T13:13:08.356Z,1504
2016-03-11T13:14:08.373Z,1456
2016-03-11T13:15:08.408Z,1408
2016-03-11T13:16:08.426Z,1344
2016-03-11T13:17:08.428Z,1308
2016-03-11T13:18:08.447Z,1288
2016-03-11T13:19:08.480Z,1268
2016-03-11T13:20:08.483Z,1236
2016-03-11T13:21:08.502Z,1196
2016-03-11T13:22:08.488Z,1156
2016-03-11T13:23:08.569Z,1132
2016-03-11T13:24:08.541Z,1148
2016-03-11T13:25:08.560Z,1144
2016-03-11T13:26:08.563Z,1128
2016-03-11T13:27:08.440Z,1120
2016-03-11T13:28:08.443Z,1128
2016-03-11T13:29:08.633Z,1148
2016-03-11T13:30:08.495Z,1164
2016-03-11T13:31:08.669Z,1136
2016-03-11T13:32:08.672Z,1112
2016-03-11T13:33:08.674Z,1096
2016-03-11T13:34:08.693Z,1088
2016-03-11T13:35:08.712Z,1084
2016-03-11T13:36:08.760Z,1052
2016-03-11T13:37:08.779Z,1048
2016-03-11T13:38:08.970Z,1048
2016-03-11T13:39:08.784Z,1060
2016-03-11T13:40:08.803Z,1084
2016-03-11T13:41:08.884Z,1080
2016-03-11T13:42:08.824Z,1064
2016-03-11T13:43:08.858Z,1016
2016-03-11T13:44:08.923Z,992
2016-03-11T13:45:08.879Z,964
2016-03-11T13:46:08.897Z,944
2016-03-11T13:47:08.759Z,928
2016-03-11T13:48:08.918Z,924
2016-03-11T13:49:08.936Z,920
2016-03-11T13:50:08.970Z,892
2016-03-11T13:51:08.989Z,864
2016-03-11T13:52:09.008Z,840
2016-03-11T13:53:09.010Z,808
2016-03-11T13:54:09.028Z,788